Oppenheim, New York
Current Conditions -  °F | °C
As of 8:35 PM on Thursday 27 Nov 2014 (Local Time) from KNY0 Reporting Station
Overcast Overcast  
Wind Chill: 20°   Ceiling: 5000
Heat Index: 26°   Visibility: 10mi
Dew Point: 23°   Wind: 5mph
Humidity: 89%   Direction: 250°WSW
Pressure: 30.01"   Gusts: NA
Location:  43.1048°N, 74.7138°W
Report Text: KNY0 280135Z AUTO 25004KT 10SM OVC050 M03/M05 A3001 RMK AO2 T10351050
Loading
Personal Weather Stations






























Interactive Weather Map New forecast layout! Learn more

10-Day Weather Forecast

Advertisements
Track Severe Weather on mobile